Chidester, Arkansas
Current Conditions -  °F | °C
As of 7:35 AM on Sunday 23 Nov 2014 (Local Time) from KCDH Reporting Station
Moderate Rain Moderate Rain  
Wind Chill: 59°   Ceiling: 400
Heat Index: 59°   Visibility: 3mi
Dew Point: 57°   Wind: 8mph
Humidity: 94%   Direction: 40°NE
Pressure: 29.63"   Gusts: NA
Location:  33.7°N, 93.02°W
Report Text: KCDH 231335Z AUTO 04007KT 3SM RA OVC004 15/14 A2963 RMK AO2
Loading
Personal Weather Stations






























Interactive Weather Map New forecast layout! Learn more

10-Day Weather Forecast

Advertisements
Track Severe Weather on mobile